Time;durP1;ratioP1;P1;durP2;ratioP2;P2;SDS_P1;SDS_P2;PMS_P1;PMS_P2;Temp;Humidity;BMP_temperature;BMP_pressure;BME280_temperature;BME280_humidity;BME280_pressure;Samples;Min_cycle;Max_cycle;Signal;HPM_P1;HPM_P2
2022/05/28 00:00:29;;;;;;;8.05;1.45;;;9.00;99.90;;;;;;5107702;28;20496;-91
2022/05/28 00:02:55;;;;;;;10.52;1.63;;;9.00;99.90;;;;;;5125961;28;20020;-93
2022/05/28 00:05:21;;;;;;;9.93;1.55;;;9.00;99.90;;;;;;5107258;28;20499;-91
2022/05/28 00:07:48;;;;;;;8.80;1.25;;;9.00;99.90;;;;;;5107136;28;20027;-92
2022/05/28 00:10:17;;;;;;;8.00;1.63;;;8.90;99.90;;;;;;5126133;28;20015;-92
2022/05/28 00:12:42;;;;;;;9.05;2.22;;;8.90;99.90;;;;;;5107323;28;20020;-90
2022/05/28 00:15:09;;;;;;;7.63;2.30;;;8.90;99.90;;;;;;5107077;28;20043;-92
2022/05/28 00:17:36;;;;;;;11.27;1.48;;;8.90;99.90;;;;;;5124782;28;20076;-90
2022/05/28 00:20:03;;;;;;;9.80;1.80;;;8.90;99.90;;;;;;5106141;28;20027;-92
2022/05/28 00:22:28;;;;;;;9.95;1.27;;;8.80;99.90;;;;;;5106430;28;20052;-93
2022/05/28 00:24:57;;;;;;;7.97;1.67;;;8.80;99.90;;;;;;5106286;28;20027;-93
2022/05/28 00:27:23;;;;;;;11.80;1.63;;;8.80;99.90;;;;;;5106413;28;20028;-90
2022/05/28 00:29:48;;;;;;;9.75;2.00;;;8.70;99.90;;;;;;5106025;28;20031;-91
2022/05/28 00:32:14;;;;;;;12.57;1.73;;;8.70;99.90;;;;;;5106178;28;20028;-92
2022/05/28 00:34:40;;;;;;;8.40;1.55;;;8.60;99.90;;;;;;5105554;28;20063;-92
2022/05/28 00:37:07;;;;;;;14.18;1.35;;;8.60;99.90;;;;;;5105357;28;20046;-92
2022/05/28 00:39:33;;;;;;;7.65;1.50;;;8.60;99.90;;;;;;5105963;28;20023;-91
2022/05/28 00:42:00;;;;;;;10.27;1.75;;;8.50;99.90;;;;;;5107794;28;20028;-92
2022/05/28 00:44:25;;;;;;;10.15;1.67;;;8.50;99.90;;;;;;5108670;28;20048;-91
2022/05/28 00:46:54;;;;;;;12.15;1.80;;;8.50;99.90;;;;;;5104000;28;20431;-91
2022/05/28 00:49:27;;;;;;;6.88;1.40;;;8.50;99.90;;;;;;5102692;28;20024;-91
2022/05/28 00:51:56;;;;;;;8.13;1.35;;;8.40;99.90;;;;;;5102495;28;20115;-92
2022/05/28 00:54:22;;;;;;;10.35;1.50;;;8.50;99.90;;;;;;5102036;28;20520;-91
2022/05/28 00:56:49;;;;;;;7.13;1.15;;;8.40;99.90;;;;;;5102768;28;20020;-93
2022/05/28 00:59:15;;;;;;;11.82;1.73;;;8.40;99.90;;;;;;5102460;28;20028;-92
2022/05/28 01:01:42;;;;;;;13.60;1.55;;;8.40;99.90;;;;;;5102029;28;20024;-92
2022/05/28 01:04:38;;;;;;;8.80;1.33;;;8.40;99.90;;;;;;5102569;28;20024;-93
2022/05/28 01:07:08;;;;;;;6.80;1.20;;;8.40;99.90;;;;;;5101437;28;20074;-91
2022/05/28 01:09:54;;;;;;;4.18;1.23;;;8.40;99.90;;;;;;5102664;28;20067;-90
2022/05/28 01:12:54;;;;;;;13.05;1.50;;;8.40;99.90;;;;;;5102275;28;20043;-91
2022/05/28 01:15:28;;;;;;;6.38;1.23;;;8.40;99.90;;;;;;5004117;28;20058;-90
2022/05/28 01:18:12;;;;;;;9.23;1.90;;;8.40;99.90;;;;;;5004354;28;20037;-92
2022/05/28 01:20:50;;;;;;;13.48;1.73;;;8.30;99.90;;;;;;5004616;28;20037;-91
2022/05/28 01:23:50;;;;;;;12.02;1.52;;;8.30;99.90;;;;;;5004501;28;20127;-91
2022/05/28 01:26:25;;;;;;;12.27;2.63;;;8.30;99.90;;;;;;5004235;28;20489;-92
2022/05/28 01:28:56;;;;;;;10.75;1.65;;;8.30;99.90;;;;;;5004139;28;20269;-91
2022/05/28 01:31:23;;;;;;;12.88;1.40;;;8.20;99.90;;;;;;5003839;28;20104;-89
2022/05/28 01:33:50;;;;;;;17.67;2.33;;;8.20;99.90;;;;;;5005799;28;20092;-92
2022/05/28 01:36:18;;;;;;;12.02;1.90;;;8.20;99.90;;;;;;5007034;28;20044;-91
2022/05/28 01:38:46;;;;;;;7.63;1.42;;;8.10;99.90;;;;;;5006929;28;20569;-91
2022/05/28 01:41:13;;;;;;;6.20;1.77;;;8.10;99.90;;;;;;5006782;28;20483;-91
2022/05/28 01:43:43;;;;;;;8.32;1.60;;;8.10;99.90;;;;;;5006439;28;20050;-92
2022/05/28 01:46:12;;;;;;;9.05;2.13;;;8.10;99.90;;;;;;5005670;28;20070;-91
2022/05/28 01:48:41;;;;;;;8.90;1.83;;;8.10;99.90;;;;;;5005490;28;20033;-90
2022/05/28 01:51:07;;;;;;;11.43;1.27;;;8.10;99.90;;;;;;5005744;28;20030;-92
2022/05/28 01:56:21;;;;;;;14.38;1.75;;;8.10;99.90;;;;;;5083053;28;20039;-90
2022/05/28 01:58:48;;;;;;;11.13;1.83;;;8.10;99.90;;;;;;5082576;28;20029;-90
2022/05/28 02:01:14;;;;;;;9.13;1.98;;;8.10;99.90;;;;;;5082413;28;20107;-93
2022/05/28 02:03:48;;;;;;;7.38;1.58;;;8.10;99.90;;;;;;5080957;28;20067;-91
2022/05/28 02:06:14;;;;;;;10.77;1.73;;;8.10;99.90;;;;;;5081145;28;20141;-90
2022/05/28 02:08:43;;;;;;;11.15;1.63;;;8.10;99.90;;;;;;5081275;28;20107;-91
2022/05/28 02:11:16;;;;;;;7.75;1.67;;;8.10;99.90;;;;;;5080908;28;20028;-89
2022/05/28 02:13:48;;;;;;;9.88;2.20;;;8.10;99.90;;;;;;5080354;28;20037;-91
2022/05/28 02:16:19;;;;;;;12.57;2.08;;;8.10;99.90;;;;;;5080208;28;20034;-92
2022/05/28 02:18:55;;;;;;;9.10;1.77;;;8.10;99.90;;;;;;5080529;28;20032;-91
2022/05/28 02:21:49;;;;;;;12.48;1.85;;;8.00;99.90;;;;;;5080565;28;20029;-90
2022/05/28 02:24:26;;;;;;;11.32;1.70;;;8.00;99.90;;;;;;5080529;28;20111;-92
2022/05/28 02:26:57;;;;;;;6.28;1.23;;;8.00;99.90;;;;;;5080515;28;20497;-92
2022/05/28 02:29:23;;;;;;;;;;;8.00;99.90;;;;;;5081415;28;20435;-90
2022/05/28 02:31:50;;;;;;;5.93;1.50;;;8.00;99.90;;;;;;5081306;28;19904;-91
2022/05/28 02:34:17;;;;;;;5.63;1.40;;;8.00;99.90;;;;;;5085920;28;20034;-92
2022/05/28 02:36:43;;;;;;;11.30;1.98;;;8.00;99.90;;;;;;5082826;28;20028;-90
2022/05/28 02:39:10;;;;;;;8.18;1.77;;;7.90;99.90;;;;;;5080333;28;20380;-91
2022/05/28 02:41:36;;;;;;;11.55;1.58;;;7.90;99.90;;;;;;5079797;28;20104;-92
2022/05/28 02:44:02;;;;;;;11.82;1.60;;;7.90;99.90;;;;;;5094270;28;20079;-92
2022/05/28 02:46:28;;;;;;;10.18;1.77;;;7.90;99.90;;;;;;5100005;28;20024;-91
2022/05/28 02:48:54;;;;;;;8.13;1.42;;;7.80;99.90;;;;;;5099622;28;20046;-91
2022/05/28 02:51:22;;;;;;;7.60;1.55;;;7.80;99.90;;;;;;5099452;28;20483;-92
2022/05/28 02:53:49;;;;;;;9.57;2.03;;;7.80;99.90;;;;;;5099866;28;20036;-91
2022/05/28 02:56:15;;;;;;;5.68;1.20;;;7.80;99.90;;;;;;5099916;28;20024;-91
2022/05/28 02:58:41;;;;;;;6.50;1.35;;;7.70;99.90;;;;;;5099121;28;20052;-90
2022/05/28 03:01:25;;;;;;;8.00;1.40;;;7.70;99.90;;;;;;5099709;28;20556;-90
2022/05/28 03:03:51;;;;;;;7.88;1.50;;;7.70;99.90;;;;;;5099640;28;20122;-90
2022/05/28 03:06:17;;;;;;;11.82;1.60;;;7.70;99.90;;;;;;5099491;28;20024;-90
2022/05/28 03:08:42;;;;;;;6.22;1.27;;;7.70;99.90;;;;;;5099548;28;20028;-90
2022/05/28 03:11:08;;;;;;;11.13;1.30;;;7.70;99.90;;;;;;5099892;28;20059;-93
2022/05/28 03:13:34;;;;;;;7.07;0.95;;;7.70;99.90;;;;;;5099641;28;20035;-91
2022/05/28 03:16:00;;;;;;;8.90;1.52;;;7.60;99.90;;;;;;5099592;28;20024;-90
2022/05/28 03:18:29;;;;;;;8.63;1.58;;;7.60;99.90;;;;;;5101209;28;20028;-92
2022/05/28 03:20:54;;;;;;;3.83;1.42;;;7.60;99.90;;;;;;5099296;28;20078;-91
2022/05/28 03:23:20;;;;;;;19.27;2.95;;;7.60;99.90;;;;;;5099340;28;20024;-92
2022/05/28 03:25:46;;;;;;;11.07;1.55;;;7.60;99.90;;;;;;5099810;28;20066;-91
2022/05/28 03:28:11;;;;;;;8.02;2.63;;;7.50;99.90;;;;;;5099194;28;20461;-93
2022/05/28 03:30:37;;;;;;;3.50;2.13;;;7.50;99.90;;;;;;5098752;28;20030;-91
2022/05/28 03:33:03;;;;;;;6.25;1.30;;;7.50;99.90;;;;;;5099624;28;20268;-91
2022/05/28 03:35:29;;;;;;;11.20;1.30;;;7.50;99.90;;;;;;5099680;28;20024;-91
2022/05/28 03:37:54;;;;;;;10.48;1.60;;;7.50;99.90;;;;;;5098751;28;20504;-91
2022/05/28 03:40:20;;;;;;;6.32;1.35;;;7.50;99.90;;;;;;5099100;28;20035;-90
2022/05/28 03:42:46;;;;;;;8.70;1.33;;;7.40;99.90;;;;;;5098962;28;20496;-93
2022/05/28 03:45:11;;;;;;;12.45;2.55;;;7.40;99.90;;;;;;5098749;28;20035;-93
2022/05/28 03:47:37;;;;;;;5.72;1.35;;;7.40;99.90;;;;;;5098985;28;20072;-91
2022/05/28 03:50:04;;;;;;;8.38;1.15;;;7.40;99.90;;;;;;5099673;28;20126;-91
2022/05/28 03:52:30;;;;;;;9.25;1.30;;;7.30;99.90;;;;;;5099758;28;20485;-91
2022/05/28 03:54:55;;;;;;;8.23;1.48;;;7.30;99.90;;;;;;5099063;28;20133;-91
2022/05/28 03:57:25;;;;;;;6.28;1.10;;;7.30;99.90;;;;;;5098738;28;20033;-91
2022/05/28 03:59:52;;;;;;;8.33;1.27;;;7.30;99.90;;;;;;5099824;28;20028;-90
2022/05/28 04:02:18;;;;;;;6.18;1.77;;;7.30;99.90;;;;;;5098863;28;20262;-91
2022/05/28 04:04:44;;;;;;;6.57;1.20;;;7.20;99.90;;;;;;5099165;28;20103;-92
2022/05/28 04:07:11;;;;;;;3.75;0.95;;;7.30;99.90;;;;;;5098978;28;20020;-92
2022/05/28 04:09:40;;;;;;;4.88;1.10;;;7.30;99.90;;;;;;5098622;28;20419;-91
2022/05/28 04:12:06;;;;;;;5.88;1.00;;;7.20;99.90;;;;;;5098712;28;20024;-91
2022/05/28 04:14:32;;;;;;;9.60;1.27;;;7.20;99.90;;;;;;5098750;28;20117;-91
2022/05/28 04:16:57;;;;;;;5.43;0.98;;;7.20;99.90;;;;;;5098880;28;20021;-91
2022/05/28 04:19:23;;;;;;;9.80;1.55;;;7.20;99.90;;;;;;5098920;28;20388;-91
2022/05/28 04:21:49;;;;;;;14.48;1.50;;;7.20;99.90;;;;;;5100812;28;20405;-91
2022/05/28 04:24:15;;;;;;;8.13;1.40;;;7.20;99.90;;;;;;5106296;28;20030;-92
2022/05/28 04:26:41;;;;;;;6.22;1.25;;;7.20;99.90;;;;;;5100561;28;20043;-91
2022/05/28 04:29:06;;;;;;;5.65;1.13;;;7.10;99.90;;;;;;5099715;28;20507;-91
2022/05/28 04:31:32;;;;;;;6.63;1.90;;;7.20;99.90;;;;;;5099386;28;20025;-91
2022/05/28 04:33:58;;;;;;;5.03;1.08;;;7.10;99.90;;;;;;5098904;28;20063;-91
2022/05/28 04:36:24;;;;;;;4.32;1.02;;;7.10;99.90;;;;;;5098910;28;20542;-91
2022/05/28 04:38:50;;;;;;;11.98;1.48;;;7.10;99.90;;;;;;5098544;28;20055;-91
2022/05/28 04:41:16;;;;;;;10.05;1.30;;;7.10;99.90;;;;;;5097539;28;20030;-91
2022/05/28 04:43:42;;;;;;;5.60;1.23;;;7.10;99.90;;;;;;5100716;28;20051;-90
2022/05/28 04:46:07;;;;;;;6.30;1.27;;;7.10;99.90;;;;;;5102420;28;20116;-91
2022/05/28 04:48:35;;;;;;;6.47;0.88;;;7.10;99.90;;;;;;5102434;28;20040;-91
2022/05/28 04:51:01;;;;;;;7.55;1.40;;;7.10;99.90;;;;;;5102072;28;20078;-91
2022/05/28 04:53:26;;;;;;;5.85;1.08;;;7.10;99.90;;;;;;5101881;28;20400;-92
2022/05/28 04:55:52;;;;;;;6.03;1.20;;;7.10;99.90;;;;;;5102123;28;20027;-92
2022/05/28 04:58:18;;;;;;;10.88;1.77;;;7.10;99.90;;;;;;5102172;28;20058;-92
2022/05/28 05:00:47;;;;;;;6.47;1.38;;;7.20;99.90;;;;;;5102032;28;20024;-92
2022/05/28 05:03:14;;;;;;;4.47;1.05;;;7.10;99.90;;;;;;5102147;28;20051;-92
2022/05/28 05:05:40;;;;;;;10.73;1.33;;;7.20;99.90;;;;;;5102128;28;20070;-91
2022/05/28 05:08:06;;;;;;;6.22;1.30;;;7.10;99.90;;;;;;5101796;28;20427;-91
2022/05/28 05:10:32;;;;;;;2.83;0.80;;;7.10;99.90;;;;;;5103263;28;20021;-92
2022/05/28 05:13:02;;;;;;;7.68;1.30;;;7.10;99.90;;;;;;5101763;28;20043;-91
2022/05/28 05:15:28;;;;;;;4.03;1.80;;;7.10;99.90;;;;;;5101794;28;20110;-91
2022/05/28 05:17:53;;;;;;;6.85;1.58;;;7.10;99.90;;;;;;5101431;28;20055;-91
2022/05/28 05:20:19;;;;;;;7.68;1.27;;;7.10;99.90;;;;;;5101441;28;20122;-92
2022/05/28 05:22:45;;;;;;;10.68;1.08;;;7.10;99.90;;;;;;5101702;28;20016;-91
2022/05/28 05:25:13;;;;;;;6.50;1.10;;;7.10;99.90;;;;;;5101908;28;20153;-92
2022/05/28 05:27:39;;;;;;;8.40;1.30;;;7.10;99.90;;;;;;5101357;28;20030;-91
2022/05/28 05:30:06;;;;;;;8.68;2.75;;;7.10;99.90;;;;;;5101320;28;20381;-91
2022/05/28 05:32:32;;;;;;;7.10;1.25;;;7.10;99.90;;;;;;5101867;28;20028;-93
2022/05/28 05:34:58;;;;;;;6.45;1.38;;;7.10;99.90;;;;;;5085511;28;20113;-92
2022/05/28 05:37:24;;;;;;;3.47;1.13;;;7.10;99.90;;;;;;5103513;28;20095;-92
2022/05/28 05:39:50;;;;;;;2.80;0.85;;;7.20;99.90;;;;;;5112159;28;20031;-91
2022/05/28 05:42:15;;;;;;;10.13;1.33;;;7.20;99.90;;;;;;5119157;28;20012;-90
2022/05/28 05:44:41;;;;;;;4.32;2.30;;;7.20;99.90;;;;;;5122095;28;20039;-91
2022/05/28 05:47:07;;;;;;;7.30;1.00;;;7.30;99.90;;;;;;5121976;27;20019;-91
2022/05/28 05:49:33;;;;;;;6.95;1.38;;;7.30;99.90;;;;;;5121688;27;20171;-92
2022/05/28 05:51:59;;;;;;;9.98;1.13;;;7.40;99.90;;;;;;5108303;28;20019;-89
2022/05/28 05:54:25;;;;;;;3.03;1.10;;;7.40;99.90;;;;;;5105278;28;20032;-91
2022/05/28 05:56:52;;;;;;;5.40;1.00;;;7.50;99.90;;;;;;5104505;28;20512;-90
2022/05/28 05:59:18;;;;;;;3.72;0.90;;;7.60;99.90;;;;;;5105213;28;20420;-91
2022/05/28 06:01:44;;;;;;;2.55;0.80;;;7.70;99.90;;;;;;5104763;28;20045;-91
2022/05/28 06:04:10;;;;;;;3.83;1.00;;;7.70;99.90;;;;;;5104133;28;20075;-91
2022/05/28 06:06:35;;;;;;;3.38;0.93;;;7.80;99.90;;;;;;5104382;28;20472;-91
2022/05/28 06:09:01;;;;;;;4.40;0.70;;;7.90;99.90;;;;;;5104230;28;20012;-90
2022/05/28 06:11:27;;;;;;;7.57;1.25;;;8.00;99.90;;;;;;5104673;28;20118;-89
2022/05/28 06:13:53;;;;;;;3.47;0.77;;;8.10;99.90;;;;;;5104228;28;20047;-91
2022/05/28 06:16:18;;;;;;;4.00;1.13;;;8.10;99.90;;;;;;5104198;28;20020;-91
2022/05/28 06:18:44;;;;;;;6.10;1.05;;;8.20;99.90;;;;;;5104032;28;20030;-90
2022/05/28 06:21:11;;;;;;;9.25;1.00;;;8.30;99.90;;;;;;5104162;28;20087;-91
2022/05/28 06:23:37;;;;;;;7.32;0.93;;;8.40;99.90;;;;;;5103810;28;20438;-91
2022/05/28 06:26:04;;;;;;;9.27;1.05;;;8.40;99.90;;;;;;5103743;28;20019;-91
2022/05/28 06:28:31;;;;;;;2.25;0.75;;;8.60;99.90;;;;;;5103714;28;20477;-91
2022/05/28 06:31:03;;;;;;;7.68;1.05;;;8.70;99.90;;;;;;5106928;28;20031;-92
2022/05/28 06:33:29;;;;;;;2.33;0.98;;;8.80;99.90;;;;;;5103599;28;20042;-91
2022/05/28 06:36:00;;;;;;;3.97;1.00;;;8.80;99.90;;;;;;5103618;28;20023;-91
2022/05/28 06:38:26;;;;;;;2.63;0.82;;;8.90;99.90;;;;;;5098472;28;20020;-91
2022/05/28 06:40:52;;;;;;;4.47;0.80;;;9.00;99.90;;;;;;5103875;28;20482;-90
2022/05/28 06:43:18;;;;;;;4.15;1.17;;;9.10;99.90;;;;;;5102935;28;20488;-92
2022/05/28 06:45:44;;;;;;;3.03;0.70;;;9.30;99.90;;;;;;5100477;28;20022;-93
2022/05/28 06:48:10;;;;;;;6.70;1.00;;;9.30;99.90;;;;;;5097362;28;20400;-92
2022/05/28 06:53:20;;;;;;;3.97;0.70;;;9.50;99.90;;;;;;5115753;28;20043;-89
2022/05/28 06:55:47;;;;;;;5.03;0.90;;;9.70;99.90;;;;;;5097606;28;20020;-89
2022/05/28 06:58:14;;;;;;;5.22;1.00;;;9.80;99.90;;;;;;5097601;28;20027;-90
2022/05/28 07:00:39;;;;;;;4.97;1.23;;;9.90;99.90;;;;;;5097936;28;20040;-90
2022/05/28 07:03:06;;;;;;;6.28;1.45;;;10.10;99.90;;;;;;5096131;28;20016;-92
2022/05/28 07:05:32;;;;;;;2.78;0.73;;;10.20;99.90;;;;;;5095942;28;20020;-90
2022/05/28 07:07:58;;;;;;;2.53;0.73;;;10.40;99.90;;;;;;5114606;28;20023;-90
2022/05/28 07:10:24;;;;;;;3.90;1.08;;;10.50;99.90;;;;;;5114497;28;20484;-91
2022/05/28 07:12:50;;;;;;;2.72;0.63;;;10.60;99.90;;;;;;5095988;28;20077;-91
2022/05/28 07:15:15;;;;;;;5.28;0.95;;;10.80;99.90;;;;;;5095635;28;20035;-89
2022/05/28 07:17:42;;;;;;;4.28;0.70;;;10.90;99.90;;;;;;5095568;28;20028;-90
2022/05/28 07:20:09;;;;;;;2.83;0.55;;;11.10;99.90;;;;;;5075216;28;20028;-90
2022/05/28 07:22:35;;;;;;;3.95;1.00;;;11.20;99.90;;;;;;5095878;28;20081;-91
2022/05/28 07:25:01;;;;;;;6.38;0.82;;;11.40;99.90;;;;;;5095606;28;20047;-90
2022/05/28 07:27:42;;;;;;;3.95;0.90;;;11.50;99.90;;;;;;5062671;27;20482;-92
2022/05/28 07:30:09;;;;;;;5.93;1.02;;;11.60;99.90;;;;;;5053175;28;20057;-92
2022/05/28 07:32:35;;;;;;;6.03;0.77;;;11.70;99.90;;;;;;5063807;28;20447;-91
2022/05/28 07:35:01;;;;;;;4.32;0.95;;;11.80;99.90;;;;;;5049747;28;20027;-90
2022/05/28 07:37:30;;;;;;;7.93;1.00;;;12.00;99.90;;;;;;5050142;28;20112;-88
2022/05/28 07:39:56;;;;;;;3.03;0.77;;;12.10;99.90;;;;;;5049206;28;20045;-89
2022/05/28 07:42:22;;;;;;;4.90;0.90;;;12.10;99.90;;;;;;5055582;28;20078;-91
2022/05/28 07:44:47;;;;;;;4.55;1.00;;;12.20;99.90;;;;;;5058532;28;20033;-91
2022/05/28 07:47:13;;;;;;;7.22;1.00;;;12.20;99.90;;;;;;5035473;28;20053;-90
2022/05/28 07:49:39;;;;;;;2.53;0.80;;;12.30;99.90;;;;;;5049237;28;20025;-89
2022/05/28 07:52:05;;;;;;;5.22;0.85;;;12.40;99.90;;;;;;5049548;28;20127;-90
2022/05/28 07:54:32;;;;;;;4.65;0.65;;;12.40;99.90;;;;;;5049378;28;20112;-90
2022/05/28 07:56:57;;;;;;;4.35;1.40;;;12.50;99.90;;;;;;5047002;28;20051;-90
2022/05/28 07:59:23;;;;;;;7.72;1.45;;;12.50;99.90;;;;;;5032979;28;20023;-92
2022/05/28 08:01:49;;;;;;;2.20;0.80;;;12.60;99.90;;;;;;5034440;28;20395;-89
2022/05/28 08:04:15;;;;;;;3.13;0.68;;;12.60;99.90;;;;;;5041517;28;20032;-90
2022/05/28 08:06:42;;;;;;;3.65;0.90;;;12.70;99.90;;;;;;5049251;28;20056;-90
2022/05/28 08:09:09;;;;;;;4.57;1.25;;;12.90;99.90;;;;;;5051140;28;20470;-90
2022/05/28 08:11:36;;;;;;;2.65;0.80;;;13.10;99.90;;;;;;5054274;28;20100;-91
2022/05/28 08:14:02;;;;;;;2.35;0.73;;;13.30;99.90;;;;;;5049976;28;20045;-91
2022/05/28 08:16:28;;;;;;;6.53;0.60;;;13.50;99.90;;;;;;5054769;28;20063;-91
2022/05/28 08:18:54;;;;;;;4.35;1.33;;;13.70;99.90;;;;;;5050225;28;20339;-91
2022/05/28 08:24:05;;;;;;;3.53;0.77;;;14.00;99.20;;;;;;5050894;28;20084;-90
2022/05/28 08:26:31;;;;;;;4.97;0.98;;;14.20;98.30;;;;;;5038666;28;20042;-91
2022/05/28 08:28:57;;;;;;;6.60;0.90;;;14.20;97.80;;;;;;5044749;28;20029;-89
2022/05/28 08:31:24;;;;;;;3.60;0.90;;;14.20;97.10;;;;;;5047791;28;20052;-90
2022/05/28 08:33:51;;;;;;;4.20;0.80;;;14.20;96.70;;;;;;5057903;28;20022;-91
2022/05/28 08:36:18;;;;;;;3.63;0.68;;;14.10;96.30;;;;;;5038940;28;20030;-90
2022/05/28 08:38:44;;;;;;;13.13;1.65;;;14.10;95.90;;;;;;5031014;28;20060;-90
2022/05/28 08:41:17;;;;;;;5.47;0.95;;;14.00;95.50;;;;;;5042213;28;20498;-93
2022/05/28 08:44:02;;;;;;;3.13;0.75;;;14.20;95.50;;;;;;5036597;28;20025;-91
2022/05/28 08:46:36;;;;;;;3.17;1.05;;;14.30;95.20;;;;;;5036675;28;20032;-90
2022/05/28 08:49:05;;;;;;;2.65;0.60;;;14.40;94.80;;;;;;5039761;28;20021;-90
2022/05/28 08:51:49;;;;;;;4.95;0.93;;;14.40;94.30;;;;;;5041332;28;20032;-93
2022/05/28 08:54:24;;;;;;;3.88;0.90;;;14.50;94.00;;;;;;5055193;28;20044;-93
2022/05/28 08:56:53;;;;;;;5.47;1.10;;;14.60;93.60;;;;;;5038103;28;20037;-92
2022/05/28 08:59:25;;;;;;;2.22;0.70;;;14.60;93.30;;;;;;5036810;28;20018;-93
2022/05/28 09:01:51;;;;;;;3.22;0.93;;;14.60;93.20;;;;;;5034533;28;20124;-91
2022/05/28 09:04:21;;;;;;;1.30;0.57;;;14.70;92.90;;;;;;5034780;28;20068;-90
2022/05/28 09:06:55;;;;;;;2.47;0.70;;;14.80;92.20;;;;;;5034986;28;20041;-89
2022/05/28 09:09:41;;;;;;;1.40;0.60;;;14.90;91.80;;;;;;5035056;28;20474;-90
2022/05/28 09:12:30;;;;;;;3.15;0.95;;;15.20;91.30;;;;;;5035104;28;20036;-91
2022/05/28 09:14:56;;;;;;;4.03;0.70;;;15.40;90.80;;;;;;5034649;28;20034;-88
2022/05/28 09:17:34;;;;;;;3.03;0.60;;;15.60;89.90;;;;;;5035089;28;20032;-88
2022/05/28 09:20:05;;;;;;;4.60;0.50;;;15.90;88.50;;;;;;5034511;28;20032;-91
2022/05/28 09:22:31;;;;;;;2.03;0.63;;;16.00;86.80;;;;;;5034491;28;20114;-91
2022/05/28 09:24:57;;;;;;;1.90;0.35;;;16.00;85.30;;;;;;5034329;28;20471;-91
2022/05/28 09:27:29;;;;;;;2.42;0.90;;;16.00;84.90;;;;;;5033918;28;20147;-91
2022/05/28 09:30:07;;;;;;;4.00;0.80;;;15.90;84.10;;;;;;5033750;28;20029;-91
2022/05/28 09:32:45;;;;;;;0.55;0.50;;;15.80;83.70;;;;;;5034248;28;20060;-90
2022/05/28 09:35:34;;;;;;;3.25;0.98;;;15.70;83.50;;;;;;5035639;28;20020;-91
2022/05/28 09:38:14;;;;;;;5.15;0.52;;;15.70;83.40;;;;;;5024136;28;20045;-89
2022/05/28 09:40:53;;;;;;;2.50;0.60;;;16.00;82.80;;;;;;5034706;28;20037;-91
2022/05/28 09:43:33;;;;;;;1.60;0.55;;;16.10;81.80;;;;;;5034484;28;20051;-88
2022/05/28 09:46:20;;;;;;;1.95;0.57;;;16.10;80.40;;;;;;5032863;28;20037;-90
2022/05/28 09:49:02;;;;;;;1.40;0.50;;;16.10;80.00;;;;;;5032796;28;20026;-90
2022/05/28 09:51:31;;;;;;;2.08;0.45;;;16.10;79.70;;;;;;5033113;28;20048;-88
2022/05/28 09:54:19;;;;;;;0.98;0.50;;;16.20;79.70;;;;;;5033447;28;20018;-91
2022/05/28 09:56:51;;;;;;;0.60;0.60;;;16.20;79.30;;;;;;5034087;28;20045;-89
2022/05/28 09:59:35;;;;;;;3.58;0.75;;;16.10;78.60;;;;;;5036061;28;20024;-90
2022/05/28 10:02:30;;;;;;;3.33;0.50;;;16.10;78.50;;;;;;5034663;28;20029;-89
2022/05/28 10:05:13;;;;;;;3.50;0.80;;;16.10;78.10;;;;;;5034186;28;20140;-89
2022/05/28 10:07:51;;;;;;;4.40;1.13;;;16.10;77.90;;;;;;5035113;28;20044;-89
2022/05/28 10:10:29;;;;;;;3.30;0.70;;;16.00;77.70;;;;;;5033831;28;20128;-91
2022/05/28 10:13:14;;;;;;;2.70;0.50;;;15.90;77.50;;;;;;5033850;28;20072;-91
2022/05/28 10:15:48;;;;;;;2.10;0.65;;;16.00;77.30;;;;;;5033734;28;20037;-92
2022/05/28 10:18:23;;;;;;;4.50;1.10;;;16.20;77.30;;;;;;5035115;28;20052;-90
2022/05/28 10:21:16;;;;;;;3.38;0.77;;;16.40;77.00;;;;;;5034850;28;20025;-90
2022/05/28 10:23:49;;;;;;;3.13;0.85;;;16.70;76.50;;;;;;5035151;28;20025;-91
2022/05/28 10:26:21;;;;;;;2.50;0.65;;;16.90;75.60;;;;;;5040811;28;20057;-91
2022/05/28 10:28:53;;;;;;;2.08;0.65;;;17.00;75.20;;;;;;5033396;28;20033;-91
2022/05/28 10:31:26;;;;;;;2.80;0.80;;;17.00;74.80;;;;;;5040970;28;20056;-90
2022/05/28 10:33:52;;;;;;;1.27;0.60;;;17.10;74.40;;;;;;5056445;28;20041;-91
2022/05/28 10:36:23;;;;;;;2.42;0.60;;;17.10;74.00;;;;;;5057162;28;20040;-87
2022/05/28 10:38:49;;;;;;;2.83;0.60;;;17.20;73.40;;;;;;5053108;28;20052;-90
2022/05/28 10:41:22;;;;;;;0.98;0.60;;;17.30;72.50;;;;;;5034702;28;20064;-89
2022/05/28 10:43:49;;;;;;;1.50;0.57;;;17.30;71.50;;;;;;5032258;28;20029;-89
2022/05/28 10:46:25;;;;;;;3.05;0.47;;;17.40;71.10;;;;;;5032130;28;20041;-92
2022/05/28 10:49:01;;;;;;;2.05;0.50;;;17.40;70.70;;;;;;5033516;28;20021;-90
2022/05/28 10:51:53;;;;;;;3.17;0.63;;;17.50;70.50;;;;;;5033657;28;20144;-91
2022/05/28 10:54:48;;;;;;;3.60;0.88;;;17.40;70.00;;;;;;5033626;28;20025;-92
2022/05/28 10:57:40;;;;;;;3.28;0.60;;;17.30;69.60;;;;;;5033489;28;20085;-91
2022/05/28 11:00:12;;;;;;;1.25;0.50;;;17.20;69.90;;;;;;5033376;28;20164;-93
2022/05/28 11:03:06;;;;;;;3.22;0.77;;;17.10;70.10;;;;;;5033431;28;20491;-91
2022/05/28 11:05:31;;;;;;;3.80;0.70;;;17.20;70.10;;;;;;5033375;28;20045;-91
2022/05/28 11:08:34;;;;;;;4.03;0.50;;;17.10;70.10;;;;;;5033340;28;20057;-91
2022/05/28 11:11:22;;;;;;;1.85;0.50;;;17.10;70.60;;;;;;5032895;28;20112;-90
2022/05/28 11:14:14;;;;;;;1.85;0.55;;;17.00;70.70;;;;;;5033174;28;20029;-91
2022/05/28 11:16:52;;;;;;;1.65;0.60;;;16.90;71.00;;;;;;5033659;28;20097;-92
2022/05/28 11:19:51;;;;;;;1.90;0.70;;;16.80;71.20;;;;;;5033697;28;20036;-92
2022/05/28 11:22:43;;;;;;;3.75;0.85;;;16.80;71.10;;;;;;5034032;28;20112;-93
2022/05/28 11:25:13;;;;;;;1.65;0.65;;;16.90;71.40;;;;;;5033920;28;20109;-91
2022/05/28 11:28:11;;;;;;;2.15;0.40;;;17.30;71.50;;;;;;5034162;28;20054;-93
2022/05/28 11:30:45;;;;;;;3.33;0.50;;;17.80;70.80;;;;;;5035412;28;20182;-92
2022/05/28 11:33:28;;;;;;;1.75;0.50;;;18.00;69.30;;;;;;5034855;28;20091;-92
2022/05/28 11:36:06;;;;;;;2.30;0.47;;;18.10;68.20;;;;;;5033633;28;20017;-92
2022/05/28 11:38:46;;;;;;;4.18;0.80;;;18.10;67.60;;;;;;5034281;28;20029;-92
2022/05/28 11:41:24;;;;;;;6.28;1.00;;;18.00;67.30;;;;;;5034421;28;20072;-93
2022/05/28 11:44:04;;;;;;;2.70;1.00;;;17.90;67.50;;;;;;5034456;28;20374;-92
2022/05/28 11:46:51;;;;;;;2.50;0.70;;;17.80;67.60;;;;;;5034814;28;20499;-92
2022/05/28 11:52:21;;;;;;;2.72;0.70;;;17.70;68.30;;;;;;5043684;28;20115;-93
2022/05/28 11:55:05;;;;;;;2.33;0.57;;;17.60;68.60;;;;;;5035030;28;20022;-91
2022/05/28 11:57:40;;;;;;;5.10;0.90;;;17.60;68.40;;;;;;5033123;28;20124;-92
2022/05/28 12:00:09;;;;;;;3.78;0.75;;;17.60;68.20;;;;;;5034631;28;20494;-92
2022/05/28 12:02:53;;;;;;;3.60;0.88;;;17.70;68.00;;;;;;5033982;28;20104;-91
2022/05/28 12:05:40;;;;;;;3.20;1.00;;;17.60;68.00;;;;;;5034117;28;20032;-92
2022/05/28 12:08:07;;;;;;;2.15;0.60;;;17.60;67.70;;;;;;5023607;28;20037;-91
2022/05/28 12:10:51;;;;;;;1.60;0.60;;;17.50;67.30;;;;;;5033027;28;20025;-92
2022/05/28 12:13:30;;;;;;;3.90;0.90;;;17.50;67.20;;;;;;5035227;28;20113;-91
2022/05/28 12:16:31;;;;;;;1.48;0.60;;;17.50;67.50;;;;;;5036714;28;20025;-93
2022/05/28 12:19:22;;;;;;;0.82;0.60;;;17.50;67.70;;;;;;5035185;28;20033;-91
2022/05/28 12:21:50;;;;;;;2.88;0.75;;;17.50;67.60;;;;;;5034213;28;20034;-92
2022/05/28 12:24:18;;;;;;;3.33;0.60;;;17.50;67.50;;;;;;5038326;28;20072;-92
2022/05/28 12:27:12;;;;;;;1.35;0.60;;;17.60;67.30;;;;;;5043889;28;20529;-92
2022/05/28 12:29:54;;;;;;;3.30;0.80;;;17.80;67.20;;;;;;5037339;28;20449;-92
2022/05/28 12:32:24;;;;;;;3.63;0.68;;;18.00;67.10;;;;;;5036908;28;20550;-91
2022/05/28 12:35:24;;;;;;;1.23;0.70;;;18.10;67.00;;;;;;5037028;28;20018;-91
2022/05/28 12:38:10;;;;;;;2.25;0.85;;;18.10;66.40;;;;;;5019329;28;20030;-91
2022/05/28 12:40:57;;;;;;;4.70;2.35;;;18.00;66.40;;;;;;5019403;28;20029;-91
2022/05/28 12:43:27;;;;;;;3.30;1.55;;;17.90;66.40;;;;;;5035093;28;20086;-91
2022/05/28 12:45:54;;;;;;;2.50;1.15;;;17.70;66.90;;;;;;5035369;28;20045;-91
2022/05/28 12:48:33;;;;;;;5.05;1.50;;;17.70;67.50;;;;;;5036452;28;20443;-92
2022/05/28 12:51:22;;;;;;;12.63;4.47;;;17.70;67.60;;;;;;5035636;28;20562;-91
2022/05/28 12:53:58;;;;;;;2.38;0.90;;;17.70;67.80;;;;;;5019409;28;20056;-92
2022/05/28 12:56:38;;;;;;;5.63;1.00;;;17.80;68.00;;;;;;5035626;28;20545;-92
2022/05/28 12:59:21;;;;;;;2.92;0.90;;;17.80;67.90;;;;;;5019572;28;20075;-92
2022/05/28 13:02:24;;;;;;;3.10;0.70;;;17.80;67.70;;;;;;5019497;28;20044;-92
2022/05/28 13:05:23;;;;;;;2.28;1.00;;;17.80;67.60;;;;;;5035222;28;20034;-91
2022/05/28 13:07:53;;;;;;;1.85;0.45;;;17.80;67.70;;;;;;5034511;28;20053;-91
2022/05/28 13:10:22;;;;;;;2.70;0.90;;;17.70;67.70;;;;;;5039491;28;20053;-91
2022/05/28 13:13:15;;;;;;;1.88;0.63;;;17.60;67.70;;;;;;5040766;28;20043;-91
2022/05/28 13:16:01;;;;;;;4.70;0.68;;;17.50;67.80;;;;;;5042877;28;20156;-91
2022/05/28 13:18:39;;;;;;;2.15;0.85;;;17.50;67.70;;;;;;5041865;28;20022;-94
2022/05/28 13:21:40;;;;;;;2.92;0.65;;;17.50;67.60;;;;;;5042618;28;20498;-91
2022/05/28 13:24:26;;;;;;;;;;;17.40;67.40;;;;;;5042366;28;20393;-94